Time;durP1;ratioP1;P1;durP2;ratioP2;P2;SDS_P1;SDS_P2;PMS_P1;PMS_P2;Temp;Humidity;BMP_temperature;BMP_pressure;BME280_temperature;BME280_humidity;BME280_pressure;Samples;Min_cycle;Max_cycle;Signal;HPM_P1;HPM_P2
2022/03/03 00:01:49;;;;;;;27.92;18.15;;;;;;;-144.47;100.00;61586.06;5039961;28;20057;-76
2022/03/03 00:04:14;;;;;;;25.02;17.70;;;;;;;-144.47;100.00;61586.06;5043289;28;20033;-76
2022/03/03 00:06:40;;;;;;;29.00;18.33;;;;;;;-144.47;100.00;61586.06;5039865;28;20083;-76
2022/03/03 00:09:06;;;;;;;25.42;16.60;;;;;;;-144.47;100.00;61586.06;5039126;28;20048;-75
2022/03/03 00:11:32;;;;;;;25.50;16.63;;;;;;;-144.47;100.00;61586.06;5040010;28;20870;-76
2022/03/03 00:13:58;;;;;;;23.83;16.98;;;;;;;-144.47;100.00;61586.06;5038729;28;20108;-76
2022/03/03 00:16:24;;;;;;;28.13;18.33;;;;;;;-144.47;100.00;61586.06;5042086;28;20044;-76
2022/03/03 00:18:50;;;;;;;29.60;18.75;;;;;;;-144.47;100.00;61586.06;5039739;28;20034;-74
2022/03/03 00:21:16;;;;;;;30.48;19.60;;;;;;;-144.47;100.00;61586.06;5043013;28;20052;-75
2022/03/03 00:23:41;;;;;;;32.78;19.65;;;;;;;-144.47;100.00;61586.06;5041018;28;20361;-75
2022/03/03 00:26:07;;;;;;;25.95;18.40;;;;;;;-144.47;100.00;61586.06;5041604;28;20106;-75
2022/03/03 00:28:32;;;;;;;30.65;21.15;;;;;;;-144.47;100.00;61586.06;5041966;28;20037;-74
2022/03/03 00:30:58;;;;;;;35.15;21.85;;;;;;;-144.47;100.00;61586.06;5044068;28;20036;-76
2022/03/03 00:33:23;;;;;;;34.58;22.83;;;;;;;-144.47;100.00;61586.06;5042961;28;20147;-75
2022/03/03 00:35:49;;;;;;;34.92;21.00;;;;;;;-144.47;100.00;61586.06;5040385;28;20404;-76
2022/03/03 00:38:16;;;;;;;33.83;20.85;;;;;;;-144.47;100.00;61586.06;5043963;28;20040;-76
2022/03/03 00:40:41;;;;;;;36.70;20.33;;;;;;;-144.47;100.00;61586.06;5041641;28;20037;-77
2022/03/03 00:43:08;;;;;;;33.95;20.92;;;;;;;-144.47;100.00;61586.06;5041860;28;20041;-76
2022/03/03 00:45:34;;;;;;;33.00;20.90;;;;;;;-144.47;100.00;61586.06;5041402;28;20037;-75
2022/03/03 00:48:00;;;;;;;37.00;20.85;;;;;;;-144.47;100.00;61586.06;5040099;28;20041;-75
2022/03/03 00:50:25;;;;;;;34.45;21.10;;;;;;;-144.47;100.00;61586.06;5042732;28;20393;-77
2022/03/03 00:52:51;;;;;;;37.10;21.88;;;;;;;-144.47;100.00;61586.06;5039162;28;20052;-75
2022/03/03 00:55:16;;;;;;;38.38;22.45;;;;;;;-144.47;100.00;61586.06;5042190;28;20025;-76
2022/03/03 00:57:42;;;;;;;30.38;21.17;;;;;;;-144.47;100.00;61586.06;5055438;28;20489;-76
2022/03/03 01:00:09;;;;;;;34.05;21.55;;;;;;;-144.47;100.00;61586.06;5044330;28;20396;-76
2022/03/03 01:02:35;;;;;;;35.38;20.98;;;;;;;-144.47;100.00;61586.06;5040815;28;20029;-75
2022/03/03 01:05:01;;;;;;;33.00;20.45;;;;;;;-144.47;100.00;61586.06;5039821;28;20151;-76
2022/03/03 01:07:27;;;;;;;34.60;21.42;;;;;;;-144.47;100.00;61586.06;5044318;28;20690;-74
2022/03/03 01:09:53;;;;;;;33.38;20.30;;;;;;;-144.47;100.00;61586.06;5040340;28;20042;-75
2022/03/03 01:12:18;;;;;;;31.45;19.58;;;;;;;-144.47;100.00;61586.06;5039714;28;20583;-75
2022/03/03 01:14:44;;;;;;;33.80;18.85;;;;;;;-144.47;100.00;61586.06;5041685;28;20362;-74
2022/03/03 01:17:09;;;;;;;29.95;18.88;;;;;;;-144.47;100.00;61586.06;5039623;28;20041;-75
2022/03/03 01:19:35;;;;;;;33.17;19.90;;;;;;;-144.47;100.00;61586.06;5040474;28;20052;-77
2022/03/03 01:22:00;;;;;;;31.75;18.83;;;;;;;-144.47;100.00;61586.06;5040779;28;20420;-76
2022/03/03 01:24:26;;;;;;;34.65;19.67;;;;;;;-144.47;100.00;61586.06;5038727;28;20030;-76
2022/03/03 01:26:51;;;;;;;31.50;19.02;;;;;;;-144.47;100.00;61586.06;5041507;28;20040;-74
2022/03/03 01:29:17;;;;;;;33.72;19.95;;;;;;;-144.47;100.00;61586.06;5038509;28;20132;-74
2022/03/03 01:31:42;;;;;;;29.05;18.75;;;;;;;-144.47;100.00;61586.06;5042222;28;20633;-76
2022/03/03 01:34:08;;;;;;;30.80;19.77;;;;;;;-144.47;100.00;61586.06;5038429;28;20489;-75
2022/03/03 01:36:35;;;;;;;31.45;20.02;;;;;;;-144.47;100.00;61586.06;5039855;28;20033;-76
2022/03/03 01:39:01;;;;;;;30.40;21.58;;;;;;;-144.47;100.00;61586.06;5038946;28;20045;-75
2022/03/03 01:41:26;;;;;;;33.35;20.05;;;;;;;-144.47;100.00;61586.06;5041343;28;20112;-75
2022/03/03 01:43:52;;;;;;;29.73;20.33;;;;;;;-144.47;100.00;61586.06;5038140;28;20033;-74
2022/03/03 01:46:17;;;;;;;36.97;22.23;;;;;;;-144.47;100.00;61586.06;5041021;28;20033;-75
2022/03/03 01:48:44;;;;;;;32.13;21.30;;;;;;;-144.47;100.00;61586.06;5054120;28;20037;-76
2022/03/03 01:51:10;;;;;;;31.90;20.85;;;;;;;-144.47;100.00;61586.06;5038991;28;20037;-75
2022/03/03 01:53:36;;;;;;;35.47;22.05;;;;;;;-144.47;100.00;61586.06;5037385;28;20122;-76
2022/03/03 01:56:02;;;;;;;37.42;22.27;;;;;;;-144.47;100.00;61586.06;5036398;28;20097;-77
2022/03/03 01:58:27;;;;;;;39.58;22.45;;;;;;;-144.47;100.00;61586.06;5039982;28;20036;-76
2022/03/03 02:00:53;;;;;;;38.25;23.83;;;;;;;-144.47;100.00;61586.06;5041694;28;20044;-78
2022/03/03 02:03:19;;;;;;;35.58;22.70;;;;;;;-144.47;100.00;61586.06;5038405;28;20037;-77
2022/03/03 02:05:44;;;;;;;42.42;23.98;;;;;;;-144.47;100.00;61586.06;5040268;28;20438;-76
2022/03/03 02:08:10;;;;;;;36.22;22.42;;;;;;;-144.47;100.00;61586.06;5038908;28;20044;-76
2022/03/03 02:10:35;;;;;;;38.75;22.80;;;;;;;-144.47;100.00;61586.06;5040070;28;20094;-75
2022/03/03 02:13:01;;;;;;;36.97;22.90;;;;;;;-144.47;100.00;61586.06;5040818;28;20472;-75
2022/03/03 02:15:26;;;;;;;35.40;23.15;;;;;;;-144.47;100.00;61586.06;5039288;28;20033;-74
2022/03/03 02:17:52;;;;;;;38.40;22.15;;;;;;;-144.47;100.00;61586.06;5042185;28;20503;-77
2022/03/03 02:20:22;;;;;;;38.50;21.83;;;;;;;-144.47;100.00;61586.06;5038617;28;20036;-76
2022/03/03 02:22:50;;;;;;;36.90;22.83;;;;;;;-144.47;100.00;61586.06;5041189;28;20486;-76
2022/03/03 02:25:16;;;;;;;36.03;23.15;;;;;;;-144.47;100.00;61586.06;5041337;28;20020;-76
2022/03/03 02:27:43;;;;;;;35.78;22.95;;;;;;;-144.47;100.00;61586.06;5039762;28;20047;-75
2022/03/03 02:30:10;;;;;;;37.72;22.77;;;;;;;-144.47;100.00;61586.06;5045202;28;20581;-75
2022/03/03 02:32:35;;;;;;;36.78;22.80;;;;;;;-144.47;100.00;61586.06;5039526;28;20037;-75
2022/03/03 02:35:01;;;;;;;34.97;22.42;;;;;;;-144.47;100.00;61586.06;5039258;28;20128;-76
2022/03/03 02:37:41;;;;;;;39.80;23.38;;;;;;;-144.47;100.00;61586.06;5040762;28;20037;-76
2022/03/03 02:40:10;;;;;;;35.47;23.23;;;;;;;-144.47;100.00;61586.06;5040392;28;20061;-77
2022/03/03 02:42:37;;;;;;;36.63;22.73;;;;;;;-144.47;100.00;61586.06;5038667;28;20052;-76
2022/03/03 02:45:04;;;;;;;33.38;22.45;;;;;;;-144.47;100.00;61586.06;5040081;28;20029;-76
2022/03/03 02:47:30;;;;;;;38.53;23.10;;;;;;;-144.47;100.00;61586.06;5039060;28;20244;-74
2022/03/03 02:49:55;;;;;;;38.00;22.83;;;;;;;-144.47;100.00;61586.06;5041332;28;20047;-75
2022/03/03 02:52:21;;;;;;;35.45;22.98;;;;;;;-144.47;100.00;61586.06;5042061;28;20033;-75
2022/03/03 02:54:46;;;;;;;36.10;22.30;;;;;;;-144.47;100.00;61586.06;5048073;28;20369;-76
2022/03/03 02:59:57;;;;;;;41.55;23.70;;;;;;;-144.47;100.00;61586.06;5037988;28;20112;-77
2022/03/03 03:02:22;;;;;;;40.30;22.92;;;;;;;-144.47;100.00;61586.06;5041028;28;20554;-76
2022/03/03 03:04:48;;;;;;;35.55;22.70;;;;;;;-144.47;100.00;61586.06;5041241;28;20032;-77
2022/03/03 03:07:13;;;;;;;35.88;23.73;;;;;;;-144.47;100.00;61586.06;5053989;28;20125;-76
2022/03/03 03:09:39;;;;;;;35.55;23.65;;;;;;;-144.47;100.00;61586.06;5040152;28;20030;-75
2022/03/03 03:12:05;;;;;;;34.10;22.20;;;;;;;-144.47;100.00;61586.06;5039346;28;20512;-76
2022/03/03 03:14:30;;;;;;;35.03;23.35;;;;;;;-144.47;100.00;61586.06;5038296;28;20036;-75
2022/03/03 03:16:56;;;;;;;41.08;23.98;;;;;;;-144.47;100.00;61586.06;5039737;28;20033;-76
2022/03/03 03:19:21;;;;;;;33.20;21.67;;;;;;;-144.47;100.00;61586.06;5036995;28;20060;-76
2022/03/03 03:21:47;;;;;;;32.42;21.67;;;;;;;-144.47;100.00;61586.06;5039999;28;20043;-76
2022/03/03 03:24:12;;;;;;;35.20;22.67;;;;;;;-144.47;100.00;61586.06;5037611;28;20037;-76
2022/03/03 03:26:39;;;;;;;37.47;23.13;;;;;;;-144.47;100.00;61586.06;5038690;28;20061;-75
2022/03/03 03:29:04;;;;;;;37.03;22.20;;;;;;;-144.47;100.00;61586.06;5038351;28;20120;-76
2022/03/03 03:31:30;;;;;;;36.90;23.20;;;;;;;-144.47;100.00;61586.06;5040534;28;20037;-74
2022/03/03 03:33:56;;;;;;;35.70;22.50;;;;;;;-144.47;100.00;61586.06;5035386;28;20052;-76
2022/03/03 03:36:21;;;;;;;36.22;23.65;;;;;;;-144.47;100.00;61586.06;5040221;28;20043;-75
2022/03/03 03:38:47;;;;;;;36.17;23.58;;;;;;;-144.47;100.00;61586.06;5036779;28;20044;-76
2022/03/03 03:41:13;;;;;;;37.13;23.27;;;;;;;-144.47;100.00;61586.06;5039571;28;20049;-75
2022/03/03 03:43:39;;;;;;;38.08;23.27;;;;;;;-144.47;100.00;61586.06;5038318;28;20047;-76
2022/03/03 03:46:05;;;;;;;42.35;23.27;;;;;;;-144.47;100.00;61586.06;5037536;28;20462;-76
2022/03/03 03:48:31;;;;;;;40.45;23.00;;;;;;;-144.47;100.00;61586.06;5039972;28;20033;-76
2022/03/03 03:50:56;;;;;;;36.50;22.50;;;;;;;-144.47;100.00;61586.06;5040114;28;20036;-75
2022/03/03 03:53:22;;;;;;;36.95;23.45;;;;;;;-144.47;100.00;61586.06;5043540;28;20410;-76
2022/03/03 03:55:47;;;;;;;41.83;23.95;;;;;;;-144.47;100.00;61586.06;5043431;28;20047;-75
2022/03/03 03:58:13;;;;;;;35.28;23.83;;;;;;;-144.47;100.00;61586.06;5039334;28;20163;-77
2022/03/03 04:00:39;;;;;;;43.20;23.83;;;;;;;-144.47;100.00;61586.06;5043788;28;20025;-75
2022/03/03 04:03:04;;;;;;;35.67;23.50;;;;;;;-144.47;100.00;61586.06;5041160;28;20026;-76
2022/03/03 04:05:30;;;;;;;38.90;24.35;;;;;;;-144.47;100.00;61586.06;5057790;28;20473;-76
2022/03/03 04:07:56;;;;;;;36.25;23.30;;;;;;;-144.47;100.00;61586.06;5039737;28;20086;-76
2022/03/03 04:10:22;;;;;;;36.05;22.13;;;;;;;-144.47;100.00;61586.06;5043335;28;20028;-76
2022/03/03 04:12:47;;;;;;;41.05;22.08;;;;;;;-144.47;100.00;61586.06;5039747;28;20112;-76
2022/03/03 04:15:13;;;;;;;36.72;22.17;;;;;;;-144.47;100.00;61586.06;5042186;28;20037;-75
2022/03/03 04:17:39;;;;;;;37.38;24.02;;;;;;;-144.47;100.00;61586.06;5041454;28;20086;-75
2022/03/03 04:20:05;;;;;;;35.97;22.80;;;;;;;-144.47;100.00;61586.06;5041164;28;20086;-76
2022/03/03 04:22:31;;;;;;;35.58;21.63;;;;;;;-144.47;100.00;61586.06;5042235;28;20033;-75
2022/03/03 04:24:57;;;;;;;33.03;22.25;;;;;;;-144.47;100.00;61586.06;5039836;28;20033;-76
2022/03/03 04:27:23;;;;;;;34.00;22.52;;;;;;;-144.47;100.00;61586.06;5043121;28;20040;-77
2022/03/03 04:29:48;;;;;;;33.65;21.40;;;;;;;-144.47;100.00;61586.06;5042603;28;20033;-76
2022/03/03 04:32:13;;;;;;;38.30;23.13;;;;;;;-144.47;100.00;61586.06;5041429;28;20115;-76
2022/03/03 04:34:39;;;;;;;40.58;23.08;;;;;;;-144.47;100.00;61586.06;5041075;28;20043;-76
2022/03/03 04:37:05;;;;;;;31.33;22.88;;;;;;;-144.47;100.00;61586.06;5039271;28;20151;-77
2022/03/03 04:39:30;;;;;;;41.72;23.30;;;;;;;-144.47;100.00;61586.06;5041894;28;20029;-77
2022/03/03 04:41:57;;;;;;;37.03;24.23;;;;;;;-144.47;100.00;61586.06;5043783;28;20044;-76
2022/03/03 04:44:22;;;;;;;34.28;22.80;;;;;;;-144.47;100.00;61586.06;5039599;28;20109;-75
2022/03/03 04:46:48;;;;;;;33.97;22.92;;;;;;;-144.47;100.00;61586.06;5043213;28;20043;-76
2022/03/03 04:49:13;;;;;;;35.42;23.02;;;;;;;-144.47;100.00;61586.06;5045220;28;20381;-75
2022/03/03 04:51:40;;;;;;;38.05;23.98;;;;;;;-144.47;100.00;61586.06;5044340;28;20032;-77
2022/03/03 04:54:07;;;;;;;37.92;23.05;;;;;;;-144.47;100.00;61586.06;5043043;28;20362;-76
2022/03/03 04:56:33;;;;;;;34.33;23.90;;;;;;;-144.47;100.00;61586.06;5041543;28;20037;-77
2022/03/03 04:58:59;;;;;;;39.92;24.00;;;;;;;-144.47;100.00;61586.06;5039025;28;20541;-76
2022/03/03 05:01:24;;;;;;;37.83;23.55;;;;;;;-144.47;100.00;61586.06;5041645;28;20030;-77
2022/03/03 05:03:50;;;;;;;37.33;22.85;;;;;;;-144.47;100.00;61586.06;5057446;28;20039;-75
2022/03/03 05:06:17;;;;;;;36.17;22.45;;;;;;;-144.47;100.00;61586.06;5039213;28;20055;-77
2022/03/03 05:08:42;;;;;;;42.40;22.27;;;;;;;-144.47;100.00;61586.06;5037913;28;20433;-75
2022/03/03 05:11:08;;;;;;;35.20;22.48;;;;;;;-144.47;100.00;61586.06;5040738;28;20153;-75
2022/03/03 05:13:35;;;;;;;37.92;23.08;;;;;;;-144.47;100.00;61586.06;5040821;28;20072;-76
2022/03/03 05:16:00;;;;;;;37.40;22.65;;;;;;;-144.47;100.00;61586.06;5039142;28;20133;-75
2022/03/03 05:18:26;;;;;;;39.28;24.23;;;;;;;-144.47;100.00;61586.06;5042094;28;20116;-76
2022/03/03 05:20:52;;;;;;;37.58;23.30;;;;;;;-144.47;100.00;61586.06;5041635;28;20090;-76
2022/03/03 05:23:17;;;;;;;38.75;22.58;;;;;;;-144.47;100.00;61586.06;5038551;28;20033;-76
2022/03/03 05:25:43;;;;;;;36.92;23.00;;;;;;;-144.47;100.00;61586.06;5041045;28;20096;-74
2022/03/03 05:28:08;;;;;;;33.40;22.50;;;;;;;-144.47;100.00;61586.06;5039499;28;20072;-74
2022/03/03 05:30:34;;;;;;;35.05;23.08;;;;;;;-144.47;100.00;61586.06;5039398;28;20041;-76
2022/03/03 05:32:59;;;;;;;38.08;22.70;;;;;;;-144.47;100.00;61586.06;5055600;28;20040;-76
2022/03/03 05:35:25;;;;;;;35.85;23.55;;;;;;;-144.47;100.00;61586.06;5038584;28;20063;-76
2022/03/03 05:37:50;;;;;;;38.88;24.23;;;;;;;-144.47;100.00;61586.06;5041835;28;20503;-74
2022/03/03 05:40:16;;;;;;;35.25;23.55;;;;;;;-144.47;100.00;61586.06;5039318;28;20040;-76
2022/03/03 05:42:43;;;;;;;36.90;22.48;;;;;;;-144.47;100.00;61586.06;5040670;28;20030;-75
2022/03/03 05:45:10;;;;;;;35.60;21.40;;;;;;;-144.47;100.00;61586.06;5039003;28;20540;-74
2022/03/03 05:47:36;;;;;;;34.83;22.35;;;;;;;-144.47;100.00;61586.06;5039334;28;20060;-74
2022/03/03 05:50:04;;;;;;;35.00;22.83;;;;;;;-144.47;100.00;61586.06;5040081;28;20507;-76
2022/03/03 05:52:30;;;;;;;33.97;22.85;;;;;;;-144.47;100.00;61586.06;5038844;28;20025;-75
2022/03/03 05:54:55;;;;;;;37.13;23.40;;;;;;;-144.47;100.00;61586.06;5040705;28;20033;-76
2022/03/03 05:57:27;;;;;;;39.47;22.23;;;;;;;-144.47;100.00;61586.06;5037627;28;20037;-75
2022/03/03 05:59:57;;;;;;;36.47;21.80;;;;;;;-144.47;100.00;61586.06;5040842;28;20487;-75
2022/03/03 06:02:23;;;;;;;36.03;23.13;;;;;;;-144.47;100.00;61586.06;5037664;28;20025;-75
2022/03/03 06:04:50;;;;;;;35.53;22.33;;;;;;;-144.47;100.00;61586.06;5040509;28;20032;-76
2022/03/03 06:07:27;;;;;;;35.05;21.90;;;;;;;-144.47;100.00;61586.06;5037428;28;20025;-76
2022/03/03 06:09:56;;;;;;;36.03;22.65;;;;;;;-144.47;100.00;61586.06;5036959;28;20095;-75
2022/03/03 06:12:45;;;;;;;33.20;22.35;;;;;;;-144.47;100.00;61586.06;5036213;28;20398;-74
2022/03/03 06:15:13;;;;;;;34.00;20.83;;;;;;;-144.47;100.00;61586.06;5039030;28;20041;-73
2022/03/03 06:17:41;;;;;;;31.23;20.08;;;;;;;-144.47;100.00;61586.06;5037954;28;20041;-73
2022/03/03 06:20:07;;;;;;;40.38;21.23;;;;;;;-144.47;100.00;61586.06;4689190;28;10000426;-74
2022/03/03 06:22:33;;;;;;;38.53;22.77;;;;;;;-144.47;100.00;61586.06;5034897;28;20086;-78
2022/03/03 06:24:59;;;;;;;33.50;20.33;;;;;;;-144.47;100.00;61586.06;5034198;28;20116;-77
2022/03/03 06:27:24;;;;;;;38.47;22.48;;;;;;;-144.47;100.00;61586.06;5035730;28;20599;-75
2022/03/03 06:29:50;;;;;;;37.10;21.85;;;;;;;-144.47;100.00;61586.06;5034566;28;20120;-75
2022/03/03 06:32:16;;;;;;;35.80;21.15;;;;;;;-144.47;100.00;61586.06;5033697;28;20350;-75
2022/03/03 06:34:41;;;;;;;36.35;22.23;;;;;;;-144.47;100.00;61586.06;5038803;28;20049;-73
2022/03/03 06:37:07;;;;;;;40.38;21.85;;;;;;;-144.47;100.00;61586.06;5039355;28;20057;-75
2022/03/03 06:39:32;;;;;;;33.70;20.42;;;;;;;-144.47;100.00;61586.06;5034377;28;20148;-75
2022/03/03 06:41:58;;;;;;;31.75;20.83;;;;;;;-144.47;100.00;61586.06;5036215;28;20484;-75
2022/03/03 06:44:24;;;;;;;32.55;19.88;;;;;;;-144.47;100.00;61586.06;5033959;28;20029;-75
2022/03/03 06:46:50;;;;;;;37.03;21.25;;;;;;;-144.47;100.00;61586.06;5034294;28;20111;-74
2022/03/03 06:49:15;;;;;;;33.65;20.27;;;;;;;-144.47;100.00;61586.06;5035001;28;20022;-77
2022/03/03 06:51:50;;;;;;;37.03;20.00;;;;;;;-144.47;100.00;61586.06;5036146;28;20028;-75
2022/03/03 06:54:20;;;;;;;39.88;21.50;;;;;;;-144.47;100.00;61586.06;5016651;28;20030;-74
2022/03/03 06:56:53;;;;;;;28.95;18.70;;;;;;;-144.47;100.00;61586.06;5037218;28;20120;-75
2022/03/03 06:59:28;;;;;;;34.60;20.60;;;;;;;-144.47;100.00;61586.06;5037567;28;20048;-75
2022/03/03 07:01:55;;;;;;;32.90;19.77;;;;;;;-144.47;100.00;61586.06;5036699;28;20120;-74
2022/03/03 07:04:24;;;;;;;33.33;20.67;;;;;;;-144.47;100.00;61586.06;4471932;28;10001869;-73
2022/03/03 07:06:50;;;;;;;35.25;20.63;;;;;;;-144.47;100.00;61586.06;5036609;28;20033;-77
2022/03/03 07:09:18;;;;;;;27.77;18.52;;;;;;;-144.47;100.00;61586.06;5039336;28;20058;-74
2022/03/03 07:11:44;;;;;;;32.58;19.25;;;;;;;-144.47;100.00;61586.06;5037520;28;20029;-77
2022/03/03 07:14:11;;;;;;;32.67;19.65;;;;;;;-144.47;100.00;61586.06;5038030;28;20045;-75
2022/03/03 07:16:45;;;;;;;33.05;19.63;;;;;;;-144.47;100.00;61586.06;5036114;28;20095;-74
2022/03/03 07:19:17;;;;;;;33.45;21.52;;;;;;;-144.47;100.00;61586.06;5035494;28;20044;-75
2022/03/03 07:22:16;;;;;;;32.72;20.02;;;;;;;-144.47;100.00;61586.06;5038567;28;20026;-75
2022/03/03 07:24:48;;;;;;;29.70;21.23;;;;;;;-144.47;100.00;61586.06;5042343;28;20330;-75
2022/03/03 07:27:22;;;;;;;35.13;21.55;;;;;;;-144.47;100.00;61586.06;5040682;28;20378;-75
2022/03/03 07:29:56;;;;;;;30.25;19.83;;;;;;;-144.47;100.00;61586.06;5042930;28;20048;-76
2022/03/03 07:32:34;;;;;;;38.10;21.63;;;;;;;-144.47;100.00;61586.06;5039855;28;20034;-76
2022/03/03 07:35:12;;;;;;;35.17;21.40;;;;;;;-144.47;100.00;61586.06;5040165;28;20049;-75
2022/03/03 07:37:52;;;;;;;31.40;20.67;;;;;;;-144.47;100.00;61586.06;5041582;28;20410;-75
2022/03/03 07:40:18;;;;;;;36.97;20.90;;;;;;;-144.47;100.00;61586.06;5043894;28;20095;-76
2022/03/03 07:42:45;;;;;;;37.90;21.52;;;;;;;-144.47;100.00;61586.06;5043432;28;20079;-74
2022/03/03 07:45:11;;;;;;;30.67;21.45;;;;;;;-144.47;100.00;61586.06;5040802;28;20094;-77
2022/03/03 07:47:39;;;;;;;34.38;21.98;;;;;;;-144.47;100.00;61586.06;5041390;28;20047;-75
2022/03/03 07:50:05;;;;;;;32.88;22.73;;;;;;;-144.47;100.00;61586.06;5041516;28;20451;-76
2022/03/03 07:52:31;;;;;;;31.95;22.15;;;;;;;-144.47;100.00;61586.06;5040589;28;20033;-76
2022/03/03 07:54:57;;;;;;;35.25;23.02;;;;;;;-144.47;100.00;61586.06;5042681;28;20041;-76
2022/03/03 07:57:23;;;;;;;40.85;23.27;;;;;;;-144.47;100.00;61586.06;5038943;28;20037;-77
2022/03/03 08:00:07;;;;;;;39.35;25.38;;;;;;;-144.47;100.00;61586.06;5043718;28;20449;-75
2022/03/03 08:02:34;;;;;;;43.10;26.35;;;;;;;-144.47;100.00;61586.06;5040268;28;20038;-76
2022/03/03 08:05:05;;;;;;;43.33;27.08;;;;;;;-144.47;100.00;61586.06;5042020;28;20044;-77
2022/03/03 08:07:38;;;;;;;44.70;26.98;;;;;;;-144.47;100.00;61586.06;5039550;28;20037;-76
2022/03/03 08:10:06;;;;;;;36.10;25.23;;;;;;;-144.47;100.00;61586.06;5039938;28;20032;-76
2022/03/03 08:12:32;;;;;;;42.53;26.65;;;;;;;-144.47;100.00;61586.06;5039199;28;20090;-74
2022/03/03 08:14:59;;;;;;;38.75;25.52;;;;;;;-144.47;100.00;61586.06;5034277;28;20040;-76
2022/03/03 08:17:26;;;;;;;48.40;26.48;;;;;;;-144.47;100.00;61586.06;5035833;28;20036;-73
2022/03/03 08:19:54;;;;;;;38.60;26.27;;;;;;;-144.47;100.00;61586.06;5039066;28;20738;-72
2022/03/03 08:22:24;;;;;;;38.70;25.85;;;;;;;-144.47;100.00;61586.06;5035588;28;20041;-73
2022/03/03 08:24:54;;;;;;;39.38;24.98;;;;;;;-144.47;100.00;61586.06;5038725;28;20043;-75
2022/03/03 08:27:20;;;;;;;42.03;26.17;;;;;;;-144.47;100.00;61586.06;5038832;28;20037;-75
2022/03/03 08:29:46;;;;;;;43.42;25.98;;;;;;;-144.47;100.00;61586.06;5038231;28;20118;-77
2022/03/03 08:32:16;;;;;;;53.15;30.25;;;;;;;-144.47;100.00;61586.06;5040611;28;20116;-73
2022/03/03 08:34:53;;;;;;;49.53;28.80;;;;;;;-144.47;100.00;61586.06;5036857;28;20092;-74
2022/03/03 08:37:31;;;;;;;51.05;30.92;;;;;;;-144.47;100.00;61586.06;5039200;28;20038;-74
2022/03/03 08:39:59;;;;;;;56.25;32.90;;;;;;;-144.47;100.00;61586.06;5038631;28;20040;-74
2022/03/03 08:42:37;;;;;;;55.58;30.73;;;;;;;-144.47;100.00;61586.06;5039363;28;20056;-74
2022/03/03 08:45:06;;;;;;;48.97;30.58;;;;;;;-144.47;100.00;61586.06;5038322;28;20136;-75
2022/03/03 08:47:32;;;;;;;47.58;28.75;;;;;;;-144.47;100.00;61586.06;5039823;28;20461;-73
2022/03/03 08:50:13;;;;;;;46.30;28.38;;;;;;;-144.47;100.00;61586.06;5040617;28;20059;-73
2022/03/03 08:52:40;;;;;;;43.63;27.42;;;;;;;-144.47;100.00;61586.06;5038476;28;20087;-76
2022/03/03 08:55:09;;;;;;;43.60;27.60;;;;;;;-144.47;100.00;61586.06;5038766;28;20114;-74
2022/03/03 08:57:36;;;;;;;47.60;28.55;;;;;;;-144.47;100.00;61586.06;5036756;28;20388;-76
2022/03/03 09:00:05;;;;;;;46.20;28.48;;;;;;;-144.47;100.00;61586.06;5038905;28;20384;-75
2022/03/03 09:02:30;;;;;;;47.65;29.10;;;;;;;-144.47;100.00;61586.06;5038314;28;20443;-75
2022/03/03 09:04:56;;;;;;;44.97;28.92;;;;;;;-144.47;100.00;61586.06;5037291;28;20120;-76
2022/03/03 09:07:21;;;;;;;43.33;28.48;;;;;;;-144.47;100.00;61586.06;5038657;28;20037;-73
2022/03/03 09:09:47;;;;;;;44.05;28.75;;;;;;;-144.47;100.00;61586.06;5039839;28;20376;-74
2022/03/03 09:12:13;;;;;;;48.67;30.00;;;;;;;-144.47;100.00;61586.06;5040145;28;20449;-75
2022/03/03 09:14:39;;;;;;;47.47;30.50;;;;;;;-144.47;100.00;61586.06;5038811;28;20535;-75
2022/03/03 09:17:05;;;;;;;51.22;31.58;;;;;;;-144.47;100.00;61586.06;5040311;28;20041;-75
2022/03/03 09:19:30;;;;;;;48.20;30.45;;;;;;;-144.47;100.00;61586.06;5040454;28;20029;-73
2022/03/03 09:21:56;;;;;;;47.10;31.25;;;;;;;-144.47;100.00;61586.06;5042412;28;20087;-74
2022/03/03 09:24:23;;;;;;;49.30;29.75;;;;;;;-144.47;100.00;61586.06;5039057;28;20329;-73
2022/03/03 09:26:51;;;;;;;46.47;30.27;;;;;;;-144.47;100.00;61586.06;5042559;28;20048;-75
2022/03/03 09:29:17;;;;;;;49.95;29.73;;;;;;;-144.47;100.00;61586.06;5038156;28;20071;-75
2022/03/03 09:31:44;;;;;;;47.60;30.23;;;;;;;-144.47;100.00;61586.06;5037482;28;20182;-74
2022/03/03 09:34:10;;;;;;;46.83;29.33;;;;;;;-144.47;100.00;61586.06;5039482;28;20132;-75
2022/03/03 09:36:35;;;;;;;48.53;29.42;;;;;;;-144.47;100.00;61586.06;5036633;28;20446;-76
2022/03/03 09:39:01;;;;;;;40.13;28.20;;;;;;;-144.47;100.00;61586.06;5038226;28;20033;-77
2022/03/03 09:41:26;;;;;;;41.75;26.52;;;;;;;-144.47;100.00;61586.06;5040643;28;20079;-76
2022/03/03 09:43:52;;;;;;;42.13;27.38;;;;;;;-144.47;100.00;61586.06;5037506;28;20120;-75
2022/03/03 09:46:21;;;;;;;39.72;25.35;;;;;;;-144.47;100.00;61586.06;5042479;28;20049;-74
2022/03/03 09:48:47;;;;;;;44.80;26.58;;;;;;;-144.47;100.00;61586.06;5040732;28;20040;-75
2022/03/03 09:51:13;;;;;;;39.35;26.13;;;;;;;-144.47;100.00;61586.06;5040060;28;20026;-75
2022/03/03 09:53:42;;;;;;;42.10;27.20;;;;;;;-144.47;100.00;61586.06;5040834;28;20051;-76
2022/03/03 09:56:08;;;;;;;45.05;27.80;;;;;;;-144.47;100.00;61586.06;5042800;28;20477;-78
2022/03/03 09:58:34;;;;;;;45.15;28.63;;;;;;;-144.47;100.00;61586.06;4689244;28;10000473;-78
2022/03/03 10:01:00;;;;;;;38.08;26.95;;;;;;;-144.47;100.00;61586.06;5034381;28;20096;-75
2022/03/03 10:03:32;;;;;;;41.85;26.90;;;;;;;-144.47;100.00;61586.06;5037923;28;20040;-76
2022/03/03 10:06:00;;;;;;;45.00;25.40;;;;;;;-144.47;100.00;61586.06;5035261;28;20432;-77
2022/03/03 10:08:27;;;;;;;41.63;25.65;;;;;;;-144.47;100.00;61586.06;5036921;28;20056;-75
2022/03/03 10:10:55;;;;;;;40.10;26.02;;;;;;;-144.47;100.00;61586.06;5034366;28;20685;-76
2022/03/03 10:13:21;;;;;;;41.20;26.75;;;;;;;-144.47;100.00;61586.06;5034852;28;20100;-77
2022/03/03 10:16:01;;;;;;;41.20;24.65;;;;;;;-144.47;100.00;61586.06;5036767;28;20032;-77
2022/03/03 10:18:26;;;;;;;35.83;24.58;;;;;;;-144.47;100.00;61586.06;5037530;28;20485;-76
2022/03/03 10:20:58;;;;;;;35.50;24.52;;;;;;;-144.47;100.00;61586.06;5037897;28;20057;-76
2022/03/03 10:23:35;;;;;;;43.10;25.80;;;;;;;-144.47;100.00;61586.06;5034909;28;20979;-76
2022/03/03 10:26:14;;;;;;;38.83;24.80;;;;;;;-144.47;100.00;61586.06;5031617;28;20201;-79
2022/03/03 10:28:46;;;;;;;30.33;21.98;;;;;;;-144.47;100.00;61586.06;4324420;28;10000794;-77
2022/03/03 10:31:22;;;;;;;25.50;18.48;;;;;;;-144.47;100.00;61586.06;5038742;28;20036;-77
2022/03/03 10:33:51;;;;;;;29.23;19.33;;;;;;;-144.47;100.00;61586.06;5054848;28;20037;-77
2022/03/03 10:36:22;;;;;;;32.25;20.30;;;;;;;-144.47;100.00;61586.06;5039791;28;20064;-76
2022/03/03 10:39:00;;;;;;;27.17;20.63;;;;;;;-144.47;100.00;61586.06;5038748;28;20029;-78
2022/03/03 10:41:41;;;;;;;30.88;20.10;;;;;;;-144.47;100.00;61586.06;5038207;28;20033;-78
2022/03/03 10:44:16;;;;;;;27.83;19.77;;;;;;;-144.47;100.00;61586.06;5034437;28;20033;-76
2022/03/03 10:47:07;;;;;;;28.95;20.25;;;;;;;-144.47;100.00;61586.06;5039755;28;20037;-77
2022/03/03 10:49:35;;;;;;;31.42;20.40;;;;;;;-144.47;100.00;61586.06;5038587;28;20033;-78
2022/03/03 10:52:16;;;;;;;28.40;19.27;;;;;;;-144.47;100.00;61586.06;5040124;28;20033;-78
2022/03/03 10:54:55;;;;;;;28.48;19.35;;;;;;;-144.47;100.00;61586.06;5038124;28;20025;-79
2022/03/03 10:57:51;;;;;;;29.52;20.08;;;;;;;-144.47;100.00;61586.06;4690226;28;10000405;-78
2022/03/03 11:00:25;;;;;;;25.85;18.98;;;;;;;-144.47;100.00;61586.06;5038613;28;20044;-78